메인 페이지
METAR-TAF:

METAR-TAF

공항 :

평양 순안 국제공항

평양직할, 북한

위도: 39-02N, 경도: 125-47E, 고도: 36m

METAR: 누락

시각: 23:48 (14:48 UTC)

예보

예보는 10 시간 43분 전, 04:05시(UTC)에 발표되었습니다.
예보 대상 시간: 26일 06시부터 27일 06시까지 (UTC)
북북서8kt
시정 10km 이상
1500m 미만 상공 구름 및 적란운 없음
전환 중
27일 00시부터 27일 01시까지 (UTC)
남남동6kt
고도 2000ft 상공 구름 많음

TAF: ZKPY 260405Z 2606/2706 34004MPS CAVOK TX07/2607Z TNM03/2618Z BECMG 2700/2701 15003MPS BKN020

4,000개 이상의 공항 관측 자료 및 예보 (METAR 및 TAF 보고).

지도상에서 검색 가능한 기상관측소가 노란 점과 빨간 점으로 표시되어 있습니다.

기상관측소 명을 보려면 표시 위로 마우스를 이동하세요.

날씨 관측과 예보를 보려면 클릭하세요.

지도 변경 : 확대하려면 엑스 표시가 있는 녹색 버튼, 축소하려면 빼기 표시가 있는 녹색 버튼, 다음 페이지의 지도를 보려면 녹색 화살표를 클릭하세요.


METAR-TAF: